sensor_id;sensor_type;location;lat;lon;timestamp;P1;durP1;ratioP1;P2;durP2;ratioP2
9248;SDS011;4660;41.768;26.198;2023-06-22T00:01:52;9.57;;;6.22;;
9248;SDS011;4660;41.768;26.198;2023-06-22T00:04:18;7.15;;;6.30;;
9248;SDS011;4660;41.768;26.198;2023-06-22T00:06:43;7.93;;;6.90;;
9248;SDS011;4660;41.768;26.198;2023-06-22T00:09:09;10.18;;;5.97;;
9248;SDS011;4660;41.768;26.198;2023-06-22T00:11:35;7.30;;;6.60;;
9248;SDS011;4660;41.768;26.198;2023-06-22T00:14:02;10.18;;;5.95;;
9248;SDS011;4660;41.768;26.198;2023-06-22T00:16:28;6.65;;;6.10;;
9248;SDS011;4660;41.768;26.198;2023-06-22T00:18:53;7.28;;;6.57;;
9248;SDS011;4660;41.768;26.198;2023-06-22T00:21:19;7.88;;;6.20;;
9248;SDS011;4660;41.768;26.198;2023-06-22T00:23:47;7.80;;;7.10;;
9248;SDS011;4660;41.768;26.198;2023-06-22T00:26:13;8.77;;;7.10;;
9248;SDS011;4660;41.768;26.198;2023-06-22T00:28:39;8.05;;;7.00;;
9248;SDS011;4660;41.768;26.198;2023-06-22T00:31:04;11.00;;;7.18;;
9248;SDS011;4660;41.768;26.198;2023-06-22T00:33:30;9.65;;;8.23;;
9248;SDS011;4660;41.768;26.198;2023-06-22T00:35:56;10.90;;;8.10;;
9248;SDS011;4660;41.768;26.198;2023-06-22T00:38:22;8.15;;;7.35;;
9248;SDS011;4660;41.768;26.198;2023-06-22T00:40:47;11.30;;;8.13;;
9248;SDS011;4660;41.768;26.198;2023-06-22T00:43:13;11.52;;;8.50;;
9248;SDS011;4660;41.768;26.198;2023-06-22T00:45:38;10.40;;;9.25;;
9248;SDS011;4660;41.768;26.198;2023-06-22T00:48:04;10.93;;;9.18;;
9248;SDS011;4660;41.768;26.198;2023-06-22T00:50:32;10.18;;;9.18;;
9248;SDS011;4660;41.768;26.198;2023-06-22T00:52:59;10.65;;;9.57;;
9248;SDS011;4660;41.768;26.198;2023-06-22T00:55:41;10.20;;;8.77;;
9248;SDS011;4660;41.768;26.198;2023-06-22T00:58:12;12.15;;;9.40;;
9248;SDS011;4660;41.768;26.198;2023-06-22T01:00:38;10.20;;;9.23;;
9248;SDS011;4660;41.768;26.198;2023-06-22T01:03:05;9.55;;;8.65;;
9248;SDS011;4660;41.768;26.198;2023-06-22T01:05:34;16.70;;;9.57;;
9248;SDS011;4660;41.768;26.198;2023-06-22T01:08:04;10.02;;;8.52;;
9248;SDS011;4660;41.768;26.198;2023-06-22T01:16:24;13.68;;;8.75;;
9248;SDS011;4660;41.768;26.198;2023-06-22T01:18:54;12.23;;;9.80;;
9248;SDS011;4660;41.768;26.198;2023-06-22T01:21:23;10.15;;;9.15;;
9248;SDS011;4660;41.768;26.198;2023-06-22T01:23:56;12.73;;;9.00;;
9248;SDS011;4660;41.768;26.198;2023-06-22T01:29:18;10.35;;;9.20;;
9248;SDS011;4660;41.768;26.198;2023-06-22T01:31:45;10.18;;;9.18;;
9248;SDS011;4660;41.768;26.198;2023-06-22T01:34:13;12.55;;;9.55;;
9248;SDS011;4660;41.768;26.198;2023-06-22T01:36:40;12.38;;;9.50;;
9248;SDS011;4660;41.768;26.198;2023-06-22T01:39:06;9.88;;;8.88;;
9248;SDS011;4660;41.768;26.198;2023-06-22T01:41:35;11.10;;;9.63;;
9248;SDS011;4660;41.768;26.198;2023-06-22T01:44:04;11.18;;;9.13;;
9248;SDS011;4660;41.768;26.198;2023-06-22T01:46:32;10.40;;;9.35;;
9248;SDS011;4660;41.768;26.198;2023-06-22T01:48:59;12.00;;;9.35;;
9248;SDS011;4660;41.768;26.198;2023-06-22T01:51:27;9.88;;;8.88;;
9248;SDS011;4660;41.768;26.198;2023-06-22T01:53:53;12.05;;;9.77;;
9248;SDS011;4660;41.768;26.198;2023-06-22T01:56:18;10.50;;;9.40;;
9248;SDS011;4660;41.768;26.198;2023-06-22T01:58:47;9.93;;;8.93;;
9248;SDS011;4660;41.768;26.198;2023-06-22T02:01:17;9.40;;;8.60;;
9248;SDS011;4660;41.768;26.198;2023-06-22T02:06:46;9.95;;;8.95;;
9248;SDS011;4660;41.768;26.198;2023-06-22T02:09:16;12.48;;;8.82;;
9248;SDS011;4660;41.768;26.198;2023-06-22T02:11:46;10.73;;;9.52;;
9248;SDS011;4660;41.768;26.198;2023-06-22T02:14:13;11.77;;;10.05;;
9248;SDS011;4660;41.768;26.198;2023-06-22T02:16:40;10.27;;;9.27;;
9248;SDS011;4660;41.768;26.198;2023-06-22T02:19:07;11.18;;;9.95;;
9248;SDS011;4660;41.768;26.198;2023-06-22T02:21:33;10.95;;;9.85;;
9248;SDS011;4660;41.768;26.198;2023-06-22T02:23:59;11.82;;;10.63;;
9248;SDS011;4660;41.768;26.198;2023-06-22T02:26:25;17.15;;;10.63;;
9248;SDS011;4660;41.768;26.198;2023-06-22T02:28:51;12.30;;;10.98;;
9248;SDS011;4660;41.768;26.198;2023-06-22T02:31:18;11.30;;;10.13;;
9248;SDS011;4660;41.768;26.198;2023-06-22T02:33:45;11.18;;;10.07;;
9248;SDS011;4660;41.768;26.198;2023-06-22T02:36:10;13.77;;;10.00;;
9248;SDS011;4660;41.768;26.198;2023-06-22T02:38:38;11.32;;;10.23;;
9248;SDS011;4660;41.768;26.198;2023-06-22T02:41:13;13.15;;;9.88;;
9248;SDS011;4660;41.768;26.198;2023-06-22T02:43:44;11.95;;;10.25;;
9248;SDS011;4660;41.768;26.198;2023-06-22T02:46:12;17.00;;;10.60;;
9248;SDS011;4660;41.768;26.198;2023-06-22T02:48:41;12.60;;;11.32;;
9248;SDS011;4660;41.768;26.198;2023-06-22T02:51:06;13.57;;;10.50;;
9248;SDS011;4660;41.768;26.198;2023-06-22T02:53:32;11.55;;;10.45;;
9248;SDS011;4660;41.768;26.198;2023-06-22T02:55:58;12.00;;;10.60;;
9248;SDS011;4660;41.768;26.198;2023-06-22T02:58:26;11.90;;;10.68;;
9248;SDS011;4660;41.768;26.198;2023-06-22T03:00:52;12.40;;;10.82;;
9248;SDS011;4660;41.768;26.198;2023-06-22T03:03:18;11.23;;;9.88;;
9248;SDS011;4660;41.768;26.198;2023-06-22T03:05:44;10.60;;;9.48;;
9248;SDS011;4660;41.768;26.198;2023-06-22T03:08:10;11.90;;;10.70;;
9248;SDS011;4660;41.768;26.198;2023-06-22T03:10:35;11.27;;;10.13;;
9248;SDS011;4660;41.768;26.198;2023-06-22T03:13:01;11.52;;;10.20;;
9248;SDS011;4660;41.768;26.198;2023-06-22T03:15:26;14.32;;;10.93;;
9248;SDS011;4660;41.768;26.198;2023-06-22T03:17:54;11.43;;;10.13;;
9248;SDS011;4660;41.768;26.198;2023-06-22T03:20:20;10.95;;;9.55;;
9248;SDS011;4660;41.768;26.198;2023-06-22T03:22:46;11.85;;;10.65;;
9248;SDS011;4660;41.768;26.198;2023-06-22T03:25:11;11.55;;;10.40;;
9248;SDS011;4660;41.768;26.198;2023-06-22T03:27:40;14.02;;;10.57;;
9248;SDS011;4660;41.768;26.198;2023-06-22T03:30:08;10.75;;;9.75;;
9248;SDS011;4660;41.768;26.198;2023-06-22T03:32:35;12.07;;;10.77;;
9248;SDS011;4660;41.768;26.198;2023-06-22T03:35:00;13.43;;;9.82;;
9248;SDS011;4660;41.768;26.198;2023-06-22T03:37:27;11.43;;;10.18;;
9248;SDS011;4660;41.768;26.198;2023-06-22T03:39:53;11.43;;;10.20;;
9248;SDS011;4660;41.768;26.198;2023-06-22T03:42:18;10.93;;;9.65;;
9248;SDS011;4660;41.768;26.198;2023-06-22T03:44:44;13.88;;;10.30;;
9248;SDS011;4660;41.768;26.198;2023-06-22T03:47:09;11.23;;;10.23;;
9248;SDS011;4660;41.768;26.198;2023-06-22T03:49:35;11.35;;;10.18;;
9248;SDS011;4660;41.768;26.198;2023-06-22T03:52:01;10.30;;;9.40;;
9248;SDS011;4660;41.768;26.198;2023-06-22T03:54:28;12.90;;;10.18;;
9248;SDS011;4660;41.768;26.198;2023-06-22T03:56:55;11.23;;;10.25;;
9248;SDS011;4660;41.768;26.198;2023-06-22T03:59:22;14.90;;;10.30;;
9248;SDS011;4660;41.768;26.198;2023-06-22T04:01:47;13.30;;;11.43;;
9248;SDS011;4660;41.768;26.198;2023-06-22T04:04:13;12.80;;;10.55;;
9248;SDS011;4660;41.768;26.198;2023-06-22T04:06:39;12.55;;;10.52;;
9248;SDS011;4660;41.768;26.198;2023-06-22T04:09:05;12.43;;;9.77;;
9248;SDS011;4660;41.768;26.198;2023-06-22T04:11:31;13.73;;;10.95;;
9248;SDS011;4660;41.768;26.198;2023-06-22T04:13:57;12.32;;;11.10;;
9248;SDS011;4660;41.768;26.198;2023-06-22T04:16:22;12.13;;;10.98;;
9248;SDS011;4660;41.768;26.198;2023-06-22T04:18:48;13.35;;;11.50;;
9248;SDS011;4660;41.768;26.198;2023-06-22T04:21:13;11.82;;;10.63;;
9248;SDS011;4660;41.768;26.198;2023-06-22T04:23:39;12.38;;;11.18;;
9248;SDS011;4660;41.768;26.198;2023-06-22T04:26:04;13.20;;;11.13;;
9248;SDS011;4660;41.768;26.198;2023-06-22T04:28:30;12.55;;;11.18;;
9248;SDS011;4660;41.768;26.198;2023-06-22T04:31:01;11.95;;;10.75;;
9248;SDS011;4660;41.768;26.198;2023-06-22T04:33:27;14.45;;;11.55;;
9248;SDS011;4660;41.768;26.198;2023-06-22T04:35:54;12.00;;;10.60;;
9248;SDS011;4660;41.768;26.198;2023-06-22T04:38:22;11.95;;;10.85;;
9248;SDS011;4660;41.768;26.198;2023-06-22T04:40:48;11.70;;;10.63;;
9248;SDS011;4660;41.768;26.198;2023-06-22T04:43:14;17.60;;;11.43;;
9248;SDS011;4660;41.768;26.198;2023-06-22T04:45:40;12.40;;;10.27;;
9248;SDS011;4660;41.768;26.198;2023-06-22T04:48:05;12.52;;;10.48;;
9248;SDS011;4660;41.768;26.198;2023-06-22T04:50:31;14.60;;;10.75;;
9248;SDS011;4660;41.768;26.198;2023-06-22T04:52:57;12.25;;;10.05;;
9248;SDS011;4660;41.768;26.198;2023-06-22T04:55:23;11.40;;;10.07;;
9248;SDS011;4660;41.768;26.198;2023-06-22T04:57:50;12.13;;;10.75;;
9248;SDS011;4660;41.768;26.198;2023-06-22T05:00:16;12.30;;;10.13;;
9248;SDS011;4660;41.768;26.198;2023-06-22T05:02:44;13.25;;;10.27;;
9248;SDS011;4660;41.768;26.198;2023-06-22T05:05:13;12.07;;;10.18;;
9248;SDS011;4660;41.768;26.198;2023-06-22T05:07:42;11.25;;;10.07;;
9248;SDS011;4660;41.768;26.198;2023-06-22T05:10:16;11.95;;;9.65;;
9248;SDS011;4660;41.768;26.198;2023-06-22T05:12:43;10.50;;;9.40;;
9248;SDS011;4660;41.768;26.198;2023-06-22T05:15:08;13.30;;;9.45;;
9248;SDS011;4660;41.768;26.198;2023-06-22T05:17:35;10.70;;;9.70;;
9248;SDS011;4660;41.768;26.198;2023-06-22T05:20:02;11.20;;;9.63;;
9248;SDS011;4660;41.768;26.198;2023-06-22T05:22:31;12.48;;;9.52;;
9248;SDS011;4660;41.768;26.198;2023-06-22T05:24:57;13.65;;;10.73;;
9248;SDS011;4660;41.768;26.198;2023-06-22T05:27:22;13.20;;;10.82;;
9248;SDS011;4660;41.768;26.198;2023-06-22T05:29:48;15.82;;;10.88;;
9248;SDS011;4660;41.768;26.198;2023-06-22T05:32:13;12.63;;;11.32;;
9248;SDS011;4660;41.768;26.198;2023-06-22T05:34:39;12.75;;;10.32;;
9248;SDS011;4660;41.768;26.198;2023-06-22T05:37:05;16.80;;;11.07;;
9248;SDS011;4660;41.768;26.198;2023-06-22T05:39:31;14.38;;;11.52;;
9248;SDS011;4660;41.768;26.198;2023-06-22T05:41:57;11.65;;;10.50;;
9248;SDS011;4660;41.768;26.198;2023-06-22T05:44:22;11.75;;;10.02;;
9248;SDS011;4660;41.768;26.198;2023-06-22T05:46:48;11.18;;;10.15;;
9248;SDS011;4660;41.768;26.198;2023-06-22T05:49:13;11.93;;;10.43;;
9248;SDS011;4660;41.768;26.198;2023-06-22T05:51:40;13.98;;;10.50;;
9248;SDS011;4660;41.768;26.198;2023-06-22T05:54:05;11.48;;;10.38;;
9248;SDS011;4660;41.768;26.198;2023-06-22T05:56:31;12.48;;;10.95;;
9248;SDS011;4660;41.768;26.198;2023-06-22T05:58:57;11.32;;;10.02;;
9248;SDS011;4660;41.768;26.198;2023-06-22T06:01:22;12.48;;;11.18;;
9248;SDS011;4660;41.768;26.198;2023-06-22T06:03:48;18.15;;;12.45;;
9248;SDS011;4660;41.768;26.198;2023-06-22T06:06:15;14.55;;;10.90;;
9248;SDS011;4660;41.768;26.198;2023-06-22T06:08:41;14.77;;;11.40;;
9248;SDS011;4660;41.768;26.198;2023-06-22T06:11:07;11.38;;;9.90;;
9248;SDS011;4660;41.768;26.198;2023-06-22T06:13:32;10.52;;;9.55;;
9248;SDS011;4660;41.768;26.198;2023-06-22T06:15:58;10.68;;;9.60;;
9248;SDS011;4660;41.768;26.198;2023-06-22T06:18:24;10.90;;;9.90;;
9248;SDS011;4660;41.768;26.198;2023-06-22T06:20:50;14.48;;;9.98;;
9248;SDS011;4660;41.768;26.198;2023-06-22T06:23:15;10.82;;;9.48;;
9248;SDS011;4660;41.768;26.198;2023-06-22T06:25:41;11.73;;;10.27;;
9248;SDS011;4660;41.768;26.198;2023-06-22T06:28:06;11.73;;;9.20;;
9248;SDS011;4660;41.768;26.198;2023-06-22T06:30:32;10.32;;;9.32;;
9248;SDS011;4660;41.768;26.198;2023-06-22T06:32:57;11.07;;;9.02;;
9248;SDS011;4660;41.768;26.198;2023-06-22T06:35:23;10.25;;;9.35;;
9248;SDS011;4660;41.768;26.198;2023-06-22T06:37:49;12.88;;;8.93;;
9248;SDS011;4660;41.768;26.198;2023-06-22T06:40:16;9.55;;;8.57;;
9248;SDS011;4660;41.768;26.198;2023-06-22T06:42:43;8.95;;;8.05;;
9248;SDS011;4660;41.768;26.198;2023-06-22T06:45:23;11.13;;;9.20;;
9248;SDS011;4660;41.768;26.198;2023-06-22T06:47:49;13.52;;;8.50;;
9248;SDS011;4660;41.768;26.198;2023-06-22T06:50:16;8.88;;;8.07;;
9248;SDS011;4660;41.768;26.198;2023-06-22T06:52:42;9.77;;;7.82;;
9248;SDS011;4660;41.768;26.198;2023-06-22T06:55:08;9.48;;;8.55;;
9248;SDS011;4660;41.768;26.198;2023-06-22T06:57:38;8.98;;;8.18;;
9248;SDS011;4660;41.768;26.198;2023-06-22T07:00:11;9.07;;;8.13;;
9248;SDS011;4660;41.768;26.198;2023-06-22T07:02:42;9.48;;;7.90;;
9248;SDS011;4660;41.768;26.198;2023-06-22T07:05:13;9.63;;;7.93;;
9248;SDS011;4660;41.768;26.198;2023-06-22T07:07:44;8.00;;;7.30;;
9248;SDS011;4660;41.768;26.198;2023-06-22T07:10:10;9.55;;;7.85;;
9248;SDS011;4660;41.768;26.198;2023-06-22T07:12:36;8.90;;;8.00;;
9248;SDS011;4660;41.768;26.198;2023-06-22T07:15:05;9.98;;;9.07;;
9248;SDS011;4660;41.768;26.198;2023-06-22T07:17:37;9.10;;;8.23;;
9248;SDS011;4660;41.768;26.198;2023-06-22T07:20:06;9.45;;;8.45;;
9248;SDS011;4660;41.768;26.198;2023-06-22T07:22:41;9.00;;;8.10;;
9248;SDS011;4660;41.768;26.198;2023-06-22T07:25:09;9.75;;;8.52;;
9248;SDS011;4660;41.768;26.198;2023-06-22T07:27:39;9.57;;;8.75;;
9248;SDS011;4660;41.768;26.198;2023-06-22T07:30:12;9.38;;;8.02;;
9248;SDS011;4660;41.768;26.198;2023-06-22T07:32:39;9.80;;;8.20;;
9248;SDS011;4660;41.768;26.198;2023-06-22T07:35:06;10.18;;;7.82;;
9248;SDS011;4660;41.768;26.198;2023-06-22T07:37:32;9.18;;;8.00;;
9248;SDS011;4660;41.768;26.198;2023-06-22T07:39:59;10.18;;;8.52;;
9248;SDS011;4660;41.768;26.198;2023-06-22T07:42:25;10.45;;;8.38;;
9248;SDS011;4660;41.768;26.198;2023-06-22T07:44:51;10.27;;;7.68;;
9248;SDS011;4660;41.768;26.198;2023-06-22T07:47:16;8.55;;;7.75;;
9248;SDS011;4660;41.768;26.198;2023-06-22T07:49:45;8.52;;;7.82;;
9248;SDS011;4660;41.768;26.198;2023-06-22T07:52:12;9.32;;;8.38;;
9248;SDS011;4660;41.768;26.198;2023-06-22T07:54:37;11.60;;;8.35;;
9248;SDS011;4660;41.768;26.198;2023-06-22T07:57:05;9.60;;;8.65;;
9248;SDS011;4660;41.768;26.198;2023-06-22T07:59:30;10.02;;;9.05;;
9248;SDS011;4660;41.768;26.198;2023-06-22T08:01:56;9.90;;;8.65;;
9248;SDS011;4660;41.768;26.198;2023-06-22T08:04:21;10.50;;;9.38;;
9248;SDS011;4660;41.768;26.198;2023-06-22T08:06:47;9.90;;;8.60;;
9248;SDS011;4660;41.768;26.198;2023-06-22T08:09:12;10.48;;;8.68;;
9248;SDS011;4660;41.768;26.198;2023-06-22T08:11:38;10.45;;;9.38;;
9248;SDS011;4660;41.768;26.198;2023-06-22T08:14:03;9.70;;;8.80;;
9248;SDS011;4660;41.768;26.198;2023-06-22T08:16:29;9.15;;;8.18;;
9248;SDS011;4660;41.768;26.198;2023-06-22T08:18:55;12.10;;;8.90;;
9248;SDS011;4660;41.768;26.198;2023-06-22T08:21:20;10.65;;;8.65;;
9248;SDS011;4660;41.768;26.198;2023-06-22T08:23:46;9.93;;;8.15;;
9248;SDS011;4660;41.768;26.198;2023-06-22T08:26:14;9.32;;;8.38;;
9248;SDS011;4660;41.768;26.198;2023-06-22T08:28:39;10.07;;;9.20;;
9248;SDS011;4660;41.768;26.198;2023-06-22T08:31:05;14.93;;;8.57;;
9248;SDS011;4660;41.768;26.198;2023-06-22T08:33:31;11.85;;;8.85;;
9248;SDS011;4660;41.768;26.198;2023-06-22T08:35:57;13.27;;;9.55;;
9248;SDS011;4660;41.768;26.198;2023-06-22T08:38:23;9.02;;;8.10;;
9248;SDS011;4660;41.768;26.198;2023-06-22T08:40:49;9.93;;;8.93;;
9248;SDS011;4660;41.768;26.198;2023-06-22T08:43:15;9.60;;;8.80;;
9248;SDS011;4660;41.768;26.198;2023-06-22T08:45:41;8.60;;;7.85;;
9248;SDS011;4660;41.768;26.198;2023-06-22T08:48:06;8.93;;;8.10;;
9248;SDS011;4660;41.768;26.198;2023-06-22T08:50:33;8.85;;;8.05;;
9248;SDS011;4660;41.768;26.198;2023-06-22T08:53:01;10.15;;;8.43;;
9248;SDS011;4660;41.768;26.198;2023-06-22T08:55:29;11.77;;;8.25;;
9248;SDS011;4660;41.768;26.198;2023-06-22T08:58:01;10.98;;;8.07;;
9248;SDS011;4660;41.768;26.198;2023-06-22T09:00:27;9.73;;;8.38;;
9248;SDS011;4660;41.768;26.198;2023-06-22T09:02:54;8.70;;;7.38;;
9248;SDS011;4660;41.768;26.198;2023-06-22T09:05:24;8.77;;;7.88;;
9248;SDS011;4660;41.768;26.198;2023-06-22T09:08:10;9.57;;;7.10;;
9248;SDS011;4660;41.768;26.198;2023-06-22T09:10:39;8.93;;;7.78;;
9248;SDS011;4660;41.768;26.198;2023-06-22T09:13:04;11.40;;;7.97;;
9248;SDS011;4660;41.768;26.198;2023-06-22T09:15:30;9.02;;;7.97;;
9248;SDS011;4660;41.768;26.198;2023-06-22T09:17:55;9.10;;;8.00;;
9248;SDS011;4660;41.768;26.198;2023-06-22T09:20:22;8.27;;;7.40;;
9248;SDS011;4660;41.768;26.198;2023-06-22T09:22:48;10.52;;;7.88;;
9248;SDS011;4660;41.768;26.198;2023-06-22T09:25:13;9.15;;;7.28;;
9248;SDS011;4660;41.768;26.198;2023-06-22T09:27:39;9.52;;;7.60;;
9248;SDS011;4660;41.768;26.198;2023-06-22T09:30:08;8.00;;;7.20;;
9248;SDS011;4660;41.768;26.198;2023-06-22T09:32:49;8.95;;;7.40;;
9248;SDS011;4660;41.768;26.198;2023-06-22T09:35:17;7.65;;;7.00;;
9248;SDS011;4660;41.768;26.198;2023-06-22T09:37:42;7.95;;;7.25;;
9248;SDS011;4660;41.768;26.198;2023-06-22T09:40:08;7.40;;;6.80;;
9248;SDS011;4660;41.768;26.198;2023-06-22T09:42:36;8.05;;;7.25;;
9248;SDS011;4660;41.768;26.198;2023-06-22T09:45:02;8.75;;;7.95;;
9248;SDS011;4660;41.768;26.198;2023-06-22T09:47:28;10.43;;;7.65;;
9248;SDS011;4660;41.768;26.198;2023-06-22T09:49:54;8.68;;;7.88;;
9248;SDS011;4660;41.768;26.198;2023-06-22T09:52:21;8.70;;;8.00;;
9248;SDS011;4660;41.768;26.198;2023-06-22T09:54:47;8.57;;;7.78;;
9248;SDS011;4660;41.768;26.198;2023-06-22T09:57:12;9.00;;;7.57;;
9248;SDS011;4660;41.768;26.198;2023-06-22T09:59:38;7.95;;;7.15;;
9248;SDS011;4660;41.768;26.198;2023-06-22T10:02:05;8.38;;;7.63;;
9248;SDS011;4660;41.768;26.198;2023-06-22T10:04:32;7.15;;;6.45;;
9248;SDS011;4660;41.768;26.198;2023-06-22T10:06:58;8.07;;;7.32;;
9248;SDS011;4660;41.768;26.198;2023-06-22T10:09:24;7.70;;;7.00;;
9248;SDS011;4660;41.768;26.198;2023-06-22T10:11:50;8.05;;;7.35;;
9248;SDS011;4660;41.768;26.198;2023-06-22T10:14:15;7.40;;;6.70;;
9248;SDS011;4660;41.768;26.198;2023-06-22T10:16:41;7.68;;;6.97;;
9248;SDS011;4660;41.768;26.198;2023-06-22T10:19:07;7.43;;;6.70;;
9248;SDS011;4660;41.768;26.198;2023-06-22T10:21:33;7.72;;;6.65;;
9248;SDS011;4660;41.768;26.198;2023-06-22T10:23:59;7.22;;;6.60;;
9248;SDS011;4660;41.768;26.198;2023-06-22T10:26:31;9.45;;;6.88;;
9248;SDS011;4660;41.768;26.198;2023-06-22T10:29:02;8.05;;;7.25;;
9248;SDS011;4660;41.768;26.198;2023-06-22T10:31:28;9.95;;;6.70;;
9248;SDS011;4660;41.768;26.198;2023-06-22T10:33:54;7.45;;;6.75;;
9248;SDS011;4660;41.768;26.198;2023-06-22T10:36:20;7.50;;;6.90;;
9248;SDS011;4660;41.768;26.198;2023-06-22T10:38:47;8.10;;;6.75;;
9248;SDS011;4660;41.768;26.198;2023-06-22T10:41:13;7.65;;;6.93;;
9248;SDS011;4660;41.768;26.198;2023-06-22T10:43:38;7.18;;;6.47;;
9248;SDS011;4660;41.768;26.198;2023-06-22T10:46:04;7.65;;;6.95;;
9248;SDS011;4660;41.768;26.198;2023-06-22T10:48:30;6.82;;;6.18;;
9248;SDS011;4660;41.768;26.198;2023-06-22T10:50:55;6.90;;;6.20;;
9248;SDS011;4660;41.768;26.198;2023-06-22T10:53:21;6.70;;;6.10;;
9248;SDS011;4660;41.768;26.198;2023-06-22T10:55:47;7.47;;;6.30;;
9248;SDS011;4660;41.768;26.198;2023-06-22T10:58:13;10.38;;;5.68;;
9248;SDS011;4660;41.768;26.198;2023-06-22T11:00:38;6.28;;;5.78;;
9248;SDS011;4660;41.768;26.198;2023-06-22T11:03:04;6.03;;;5.53;;
9248;SDS011;4660;41.768;26.198;2023-06-22T11:05:30;6.72;;;6.10;;
9248;SDS011;4660;41.768;26.198;2023-06-22T11:07:55;7.35;;;5.78;;
9248;SDS011;4660;41.768;26.198;2023-06-22T11:10:21;6.07;;;5.63;;
9248;SDS011;4660;41.768;26.198;2023-06-22T11:12:46;6.75;;;5.95;;
9248;SDS011;4660;41.768;26.198;2023-06-22T11:15:12;5.90;;;5.32;;
9248;SDS011;4660;41.768;26.198;2023-06-22T11:17:38;6.38;;;5.72;;
9248;SDS011;4660;41.768;26.198;2023-06-22T11:20:03;5.80;;;5.38;;
9248;SDS011;4660;41.768;26.198;2023-06-22T11:22:36;5.80;;;5.30;;
9248;SDS011;4660;41.768;26.198;2023-06-22T11:25:05;7.18;;;5.85;;
9248;SDS011;4660;41.768;26.198;2023-06-22T11:27:31;5.70;;;5.20;;
9248;SDS011;4660;41.768;26.198;2023-06-22T11:29:57;5.32;;;4.93;;
9248;SDS011;4660;41.768;26.198;2023-06-22T11:32:23;6.05;;;5.60;;
9248;SDS011;4660;41.768;26.198;2023-06-22T11:34:49;5.95;;;5.35;;
9248;SDS011;4660;41.768;26.198;2023-06-22T11:37:15;4.53;;;4.22;;
9248;SDS011;4660;41.768;26.198;2023-06-22T11:39:40;5.00;;;4.50;;
9248;SDS011;4660;41.768;26.198;2023-06-22T11:42:06;6.40;;;4.72;;
9248;SDS011;4660;41.768;26.198;2023-06-22T11:44:33;5.28;;;4.88;;
9248;SDS011;4660;41.768;26.198;2023-06-22T11:46:58;4.60;;;4.30;;
9248;SDS011;4660;41.768;26.198;2023-06-22T11:49:26;6.05;;;4.05;;
9248;SDS011;4660;41.768;26.198;2023-06-22T11:51:52;4.85;;;4.45;;
9248;SDS011;4660;41.768;26.198;2023-06-22T11:54:18;6.20;;;4.40;;
9248;SDS011;4660;41.768;26.198;2023-06-22T11:56:43;5.72;;;4.32;;
9248;SDS011;4660;41.768;26.198;2023-06-22T11:59:09;5.30;;;4.80;;
9248;SDS011;4660;41.768;26.198;2023-06-22T12:01:35;4.97;;;4.57;;
9248;SDS011;4660;41.768;26.198;2023-06-22T12:04:00;4.80;;;4.13;;
9248;SDS011;4660;41.768;26.198;2023-06-22T12:06:26;5.20;;;4.70;;
9248;SDS011;4660;41.768;26.198;2023-06-22T12:08:52;4.65;;;4.25;;
9248;SDS011;4660;41.768;26.198;2023-06-22T12:11:17;4.97;;;4.20;;
9248;SDS011;4660;41.768;26.198;2023-06-22T12:13:43;7.15;;;4.22;;
9248;SDS011;4660;41.768;26.198;2023-06-22T12:16:08;6.57;;;4.40;;
9248;SDS011;4660;41.768;26.198;2023-06-22T12:18:34;4.43;;;4.05;;
9248;SDS011;4660;41.768;26.198;2023-06-22T12:20:59;4.60;;;4.18;;
9248;SDS011;4660;41.768;26.198;2023-06-22T12:23:25;4.38;;;3.97;;
9248;SDS011;4660;41.768;26.198;2023-06-22T12:25:50;4.50;;;4.10;;
9248;SDS011;4660;41.768;26.198;2023-06-22T12:28:16;4.60;;;4.20;;
9248;SDS011;4660;41.768;26.198;2023-06-22T12:30:42;6.30;;;4.88;;
9248;SDS011;4660;41.768;26.198;2023-06-22T12:33:07;6.53;;;4.72;;
9248;SDS011;4660;41.768;26.198;2023-06-22T12:35:34;6.40;;;4.70;;
9248;SDS011;4660;41.768;26.198;2023-06-22T12:38:00;4.90;;;4.22;;
9248;SDS011;4660;41.768;26.198;2023-06-22T12:40:25;5.00;;;4.50;;
9248;SDS011;4660;41.768;26.198;2023-06-22T12:42:51;5.22;;;4.45;;
9248;SDS011;4660;41.768;26.198;2023-06-22T12:45:17;4.60;;;4.22;;
9248;SDS011;4660;41.768;26.198;2023-06-22T12:47:42;5.40;;;4.90;;
9248;SDS011;4660;41.768;26.198;2023-06-22T12:50:08;6.97;;;4.45;;
9248;SDS011;4660;41.768;26.198;2023-06-22T12:52:36;6.03;;;4.82;;
9248;SDS011;4660;41.768;26.198;2023-06-22T12:55:04;5.35;;;4.85;;
9248;SDS011;4660;41.768;26.198;2023-06-22T12:57:30;5.15;;;4.75;;
9248;SDS011;4660;41.768;26.198;2023-06-22T12:59:56;8.13;;;5.00;;
9248;SDS011;4660;41.768;26.198;2023-06-22T13:02:23;4.85;;;4.47;;
9248;SDS011;4660;41.768;26.198;2023-06-22T13:04:49;4.97;;;4.47;;
9248;SDS011;4660;41.768;26.198;2023-06-22T13:07:15;4.68;;;4.38;;
9248;SDS011;4660;41.768;26.198;2023-06-22T13:09:40;4.80;;;4.40;;
9248;SDS011;4660;41.768;26.198;2023-06-22T13:12:06;6.10;;;4.65;;
9248;SDS011;4660;41.768;26.198;2023-06-22T13:14:32;5.03;;;4.68;;
9248;SDS011;4660;41.768;26.198;2023-06-22T13:16:57;5.00;;;4.50;;
9248;SDS011;4660;41.768;26.198;2023-06-22T13:19:23;5.95;;;4.38;;
9248;SDS011;4660;41.768;26.198;2023-06-22T13:21:49;6.10;;;4.68;;
9248;SDS011;4660;41.768;26.198;2023-06-22T13:24:14;5.15;;;4.75;;
9248;SDS011;4660;41.768;26.198;2023-06-22T13:26:41;5.28;;;4.82;;
9248;SDS011;4660;41.768;26.198;2023-06-22T13:29:07;6.47;;;4.45;;
9248;SDS011;4660;41.768;26.198;2023-06-22T13:31:32;4.90;;;4.50;;
9248;SDS011;4660;41.768;26.198;2023-06-22T13:33:58;5.28;;;4.78;;
9248;SDS011;4660;41.768;26.198;2023-06-22T13:36:23;4.43;;;4.03;;
9248;SDS011;4660;41.768;26.198;2023-06-22T13:38:49;5.03;;;4.55;;
9248;SDS011;4660;41.768;26.198;2023-06-22T13:41:14;4.53;;;4.22;;
9248;SDS011;4660;41.768;26.198;2023-06-22T13:43:41;5.50;;;4.55;;
9248;SDS011;4660;41.768;26.198;2023-06-22T13:46:06;5.18;;;4.68;;
9248;SDS011;4660;41.768;26.198;2023-06-22T13:48:34;5.38;;;4.80;;
9248;SDS011;4660;41.768;26.198;2023-06-22T13:50:59;6.55;;;4.00;;
9248;SDS011;4660;41.768;26.198;2023-06-22T13:53:25;4.75;;;4.22;;
9248;SDS011;4660;41.768;26.198;2023-06-22T13:55:51;5.00;;;4.60;;
9248;SDS011;4660;41.768;26.198;2023-06-22T13:58:17;5.47;;;4.50;;
9248;SDS011;4660;41.768;26.198;2023-06-22T14:00:45;6.55;;;4.25;;
9248;SDS011;4660;41.768;26.198;2023-06-22T14:03:10;5.32;;;4.82;;
9248;SDS011;4660;41.768;26.198;2023-06-22T14:05:36;5.50;;;4.97;;
9248;SDS011;4660;41.768;26.198;2023-06-22T14:08:02;4.88;;;4.47;;
9248;SDS011;4660;41.768;26.198;2023-06-22T14:10:28;4.90;;;4.30;;
9248;SDS011;4660;41.768;26.198;2023-06-22T14:12:54;5.15;;;4.65;;
9248;SDS011;4660;41.768;26.198;2023-06-22T14:15:19;4.90;;;4.50;;
9248;SDS011;4660;41.768;26.198;2023-06-22T14:17:45;5.13;;;4.65;;
9248;SDS011;4660;41.768;26.198;2023-06-22T14:20:10;4.82;;;4.40;;
9248;SDS011;4660;41.768;26.198;2023-06-22T14:22:36;6.20;;;4.47;;
9248;SDS011;4660;41.768;26.198;2023-06-22T14:25:04;6.53;;;4.60;;
9248;SDS011;4660;41.768;26.198;2023-06-22T14:27:30;5.15;;;4.32;;
9248;SDS011;4660;41.768;26.198;2023-06-22T14:29:55;5.00;;;4.60;;
9248;SDS011;4660;41.768;26.198;2023-06-22T14:32:21;6.60;;;4.93;;
9248;SDS011;4660;41.768;26.198;2023-06-22T14:34:46;6.50;;;4.50;;
9248;SDS011;4660;41.768;26.198;2023-06-22T14:37:12;5.28;;;4.75;;
9248;SDS011;4660;41.768;26.198;2023-06-22T14:39:38;5.10;;;4.20;;
9248;SDS011;4660;41.768;26.198;2023-06-22T14:42:04;4.60;;;4.22;;
9248;SDS011;4660;41.768;26.198;2023-06-22T14:44:30;5.05;;;4.35;;
9248;SDS011;4660;41.768;26.198;2023-06-22T14:46:56;4.57;;;4.18;;
9248;SDS011;4660;41.768;26.198;2023-06-22T14:49:22;5.25;;;4.25;;
9248;SDS011;4660;41.768;26.198;2023-06-22T14:51:47;4.63;;;4.22;;
9248;SDS011;4660;41.768;26.198;2023-06-22T14:54:15;4.57;;;4.18;;
9248;SDS011;4660;41.768;26.198;2023-06-22T14:56:41;4.55;;;4.15;;
9248;SDS011;4660;41.768;26.198;2023-06-22T14:59:06;5.18;;;4.72;;
9248;SDS011;4660;41.768;26.198;2023-06-22T15:01:33;4.70;;;4.30;;